Axtell, NE

1:17 AM CDT on July 28, 2014 (GMT -0500)
Brewster (KHDE) Elev 2310 ft | 40.45 °N, 99.34 °W | Change Station

Current weather conditions updated 22 minutes ago

Clear
Clear
62 °F
Feels Like 62 °F
N
0
Wind Variable Wind from North

Today is forecast to be nearly the same temperature as yesterday.

Today
High -- | Low -- °F
--% Chance of Precip.
Yesterday
High -- | Low -- °F
Precip. -- in
6:30 AM 8:55 PM
New Moon, 2% visible
Pressure 30.26 in
Visibility 10.0 miles
Clouds Clear
Dew Point 56 °F
Humidity 81%
Rainfall 0.00 in
Snow Depth Not available.
UV 0 out of 12
Pollen 7.80 out of 12
Air Quality Not available.
Flu Activity Not available.
METAR KHDE 280555Z AUTO 00000KT 10SM CLR 17/14 A3026 RMK AO2 T01680136 10280 20167 402920167

More Conditions Fewer Conditions

Pressure 30.26 in
Visibility 10.0 miles
Clouds Clear
Dew Point 56 °F
Humidity 81%
Rainfall 0.00 in
Snow Depth Not available.
UV 0 out of 12
Pollen 7.80 out of 12
Air Quality Not available.
Flu Activity Not available.
METAR KHDE 280555Z AUTO 00000KT 10SM CLR 17/14 A3026 RMK AO2 T01680136 10280 20167 402920167

More Conditions Fewer Conditions

10-Day Weather Forecast

Almanac

Astronomy

Jul. 28, 2014 Rise Set
Actual Time 6:30 AM CDT 8:55 PM CDT
Civil Twilight 5:59 AM CDT 9:26 PM CDT
Nautical Twilight 5:20 AM CDT 10:04 PM CDT
Astronomical Twilight 4:37 AM CDT 10:46 PM CDT
Moon 8:13 AM CDT 9:37 PM CDT
Length of Visible Light 15h 27m
Length of Day
14h 25m
Tomorrow will be 1m 55s shorter.
New Moon, 2% of the Moon is Illuminated
Today
New Moon
Aug 3
First Quarter
Aug 10
Full
Aug 17
Last Quarter
Aug 25
New

Today's Extremes

State Highs State Lows

Community

WunderPhotos

Upload Photos

1,738,288 photos uploaded!

Nearby

Snow Depth

Station Depth Elevation
No new snow has been reported.

Earthquake Activity

City Distance Mag. Time & Date
No recent earthquake activity has been reported nearby.
Minimum magnitude displayed is 2.5.

Coastal Water Temperatures

Place Temperature
No Stations Reporting

Nearby Weather Stations

Station Location Temp. Dew Point Humidity Wind Precip. Elev Updated Type
Regency, Kearney, NE 63.6 °F 56 °F 75% NE  at  2.6 mph 0.00 in / hr 2224 ft 1:17 AM CDT Rapid Fire
Kuehn International Airport, Heartwell, NE 62.9 °F 57 °F 80% North  at  3.0 mph 0.00 in / hr 2083 ft 1:16 AM CDT Normal

Show More Stations Show Fewer Stations